Time;durP1;ratioP1;P1;durP2;ratioP2;P2;SDS_P1;SDS_P2;PMS_P1;PMS_P2;Temp;Humidity;BMP_temperature;BMP_pressure;BME280_temperature;BME280_humidity;BME280_pressure;Samples;Min_cycle;Max_cycle;Signal;HPM_P1;HPM_P2
2023/09/25 00:01:02;;;;;;;9.73;4.88;;;15.60;99.90;;;;;;5032895;28;20033;-73
2023/09/25 00:03:28;;;;;;;10.02;5.00;;;15.60;99.90;;;;;;5032937;28;20025;-73
2023/09/25 00:05:56;;;;;;;9.13;4.65;;;15.60;99.90;;;;;;5032956;28;20492;-75
2023/09/25 00:08:22;;;;;;;17.73;5.35;;;15.60;99.90;;;;;;5032632;28;20101;-74
2023/09/25 00:10:48;;;;;;;9.65;5.22;;;15.60;99.90;;;;;;5032682;28;20056;-73
2023/09/25 00:13:14;;;;;;;12.48;6.03;;;15.60;99.90;;;;;;5032764;28;20021;-73
2023/09/25 00:15:44;;;;;;;7.53;4.50;;;15.60;99.90;;;;;;5033515;28;20033;-74
2023/09/25 00:18:11;;;;;;;9.93;5.00;;;15.60;99.90;;;;;;5032648;28;20028;-73
2023/09/25 00:20:37;;;;;;;13.10;5.85;;;15.60;99.90;;;;;;5032694;28;20082;-74
2023/09/25 00:23:03;;;;;;;9.70;5.45;;;15.60;99.90;;;;;;5033722;28;20021;-73
2023/09/25 00:25:29;;;;;;;9.70;5.07;;;15.60;99.90;;;;;;5032617;28;20033;-74
2023/09/25 00:27:55;;;;;;;11.85;5.20;;;15.60;99.90;;;;;;5032539;28;20017;-73
2023/09/25 00:30:21;;;;;;;15.55;5.43;;;15.60;99.90;;;;;;5031509;28;20500;-73
2023/09/25 00:32:50;;;;;;;13.45;5.85;;;15.60;99.90;;;;;;5032591;28;20429;-73
2023/09/25 00:35:16;;;;;;;10.13;5.35;;;15.60;99.90;;;;;;5051370;28;20030;-73
2023/09/25 00:37:42;;;;;;;11.05;5.32;;;15.50;99.90;;;;;;5033894;28;20477;-74
2023/09/25 00:40:17;;;;;;;10.95;4.72;;;15.50;99.90;;;;;;5035522;28;20057;-73
2023/09/25 00:42:49;;;;;;;14.07;6.13;;;15.60;99.90;;;;;;5034813;28;20440;-73
2023/09/25 00:45:15;;;;;;;11.63;5.38;;;15.60;99.90;;;;;;5035481;28;20046;-74
2023/09/25 00:47:42;;;;;;;9.73;5.13;;;15.60;99.90;;;;;;5043097;28;20029;-74
2023/09/25 00:50:09;;;;;;;11.35;5.13;;;15.60;99.90;;;;;;5040167;28;20063;-74
2023/09/25 00:52:36;;;;;;;12.32;5.20;;;15.40;99.90;;;;;;5035959;28;20021;-74
2023/09/25 00:55:04;;;;;;;12.32;5.18;;;15.40;99.90;;;;;;5035809;28;20148;-73
2023/09/25 00:57:35;;;;;;;11.90;6.03;;;15.40;99.90;;;;;;5034766;28;20037;-73
2023/09/25 01:00:03;;;;;;;11.30;5.07;;;15.30;99.90;;;;;;5035810;28;20037;-74
2023/09/25 01:02:31;;;;;;;8.63;4.57;;;15.40;99.90;;;;;;5034020;28;20118;-75
2023/09/25 01:05:03;;;;;;;9.93;5.03;;;15.40;99.90;;;;;;5035926;28;20029;-75
2023/09/25 01:07:29;;;;;;;10.07;5.10;;;15.40;99.90;;;;;;5054218;28;20017;-74
2023/09/25 01:10:14;;;;;;;9.80;4.57;;;15.30;99.90;;;;;;5034499;28;20083;-73
2023/09/25 01:12:44;;;;;;;12.27;5.15;;;15.30;99.90;;;;;;5034328;28;20029;-73
2023/09/25 01:15:10;;;;;;;10.52;5.13;;;15.30;99.90;;;;;;5035719;28;20547;-74
2023/09/25 01:17:38;;;;;;;10.45;5.03;;;15.30;99.90;;;;;;5034300;28;20101;-73
2023/09/25 01:20:15;;;;;;;10.55;5.18;;;15.30;99.90;;;;;;5035529;28;20037;-73
2023/09/25 01:22:42;;;;;;;9.57;4.65;;;15.40;99.90;;;;;;5034045;28;20087;-73
2023/09/25 01:25:11;;;;;;;10.40;5.07;;;15.40;99.90;;;;;;5034125;28;20041;-73
2023/09/25 01:27:44;;;;;;;9.70;4.60;;;15.40;99.90;;;;;;5034085;28;20074;-73
2023/09/25 01:30:11;;;;;;;8.38;4.65;;;15.40;99.90;;;;;;5041479;28;20025;-73
2023/09/25 01:32:38;;;;;;;8.00;4.10;;;15.40;99.90;;;;;;5035295;28;20419;-73
2023/09/25 01:35:12;;;;;;;8.65;4.50;;;15.40;99.90;;;;;;5033817;28;20034;-73
2023/09/25 01:37:38;;;;;;;10.80;4.22;;;15.50;99.90;;;;;;5033840;28;20037;-73
2023/09/25 01:40:05;;;;;;;7.63;4.50;;;15.50;99.90;;;;;;5066928;28;20045;-74
2023/09/25 01:42:31;;;;;;;7.63;4.22;;;15.40;99.90;;;;;;5033764;28;20061;-74
2023/09/25 01:44:57;;;;;;;6.53;3.63;;;15.40;99.90;;;;;;5033850;28;20037;-73
2023/09/25 01:47:23;;;;;;;7.28;4.28;;;15.40;99.90;;;;;;5035060;28;20437;-75
2023/09/25 01:49:49;;;;;;;6.57;4.35;;;15.50;99.90;;;;;;5033436;28;20188;-73
2023/09/25 01:52:17;;;;;;;5.20;3.30;;;15.50;99.90;;;;;;5033794;28;20128;-72
2023/09/25 01:54:43;;;;;;;8.52;3.50;;;15.50;99.90;;;;;;5036779;28;20479;-74
2023/09/25 01:57:09;;;;;;;6.30;3.40;;;15.40;99.90;;;;;;5056424;28;20042;-74
2023/09/25 01:59:35;;;;;;;8.13;3.50;;;15.40;99.90;;;;;;5032396;28;20501;-75
2023/09/25 02:02:01;;;;;;;7.85;3.60;;;15.40;99.90;;;;;;5041303;28;20053;-74
2023/09/25 02:04:27;;;;;;;8.93;3.63;;;15.40;99.90;;;;;;5033737;28;20044;-73
2023/09/25 02:06:53;;;;;;;5.60;2.72;;;15.40;99.90;;;;;;5033329;28;20500;-72
2023/09/25 02:09:18;;;;;;;9.02;3.83;;;15.40;99.90;;;;;;5033205;28;20026;-72
2023/09/25 02:11:44;;;;;;;7.88;3.58;;;15.40;99.90;;;;;;5056818;28;20084;-73
2023/09/25 02:14:10;;;;;;;6.43;3.03;;;15.40;99.90;;;;;;5031618;28;20034;-73
2023/09/25 02:16:37;;;;;;;5.60;2.92;;;15.50;99.90;;;;;;5034509;28;20109;-73
2023/09/25 02:19:03;;;;;;;4.25;2.40;;;15.50;99.90;;;;;;5033027;28;20136;-72
2023/09/25 02:21:29;;;;;;;6.75;2.50;;;15.50;99.90;;;;;;5033139;28;20036;-73
2023/09/25 02:23:55;;;;;;;7.22;3.53;;;15.50;99.90;;;;;;5032933;28;20049;-72
2023/09/25 02:26:25;;;;;;;4.18;2.33;;;15.30;99.90;;;;;;5033150;28;20029;-75
2023/09/25 02:28:51;;;;;;;5.15;3.20;;;15.40;99.90;;;;;;5034249;28;20468;-74
2023/09/25 02:31:18;;;;;;;4.13;2.47;;;15.40;99.90;;;;;;5032932;28;20119;-74
2023/09/25 02:33:44;;;;;;;4.72;2.97;;;15.40;99.90;;;;;;5034115;28;20013;-75
2023/09/25 02:36:10;;;;;;;8.18;3.25;;;15.40;99.90;;;;;;5052709;28;20034;-74
2023/09/25 02:38:36;;;;;;;7.90;3.33;;;15.40;99.90;;;;;;5058710;28;20076;-73
2023/09/25 02:41:02;;;;;;;8.73;2.90;;;15.30;99.90;;;;;;5028287;28;20025;-76
2023/09/25 02:43:28;;;;;;;5.07;2.50;;;15.40;99.90;;;;;;5033958;28;20045;-74
2023/09/25 02:45:54;;;;;;;8.70;3.10;;;15.50;99.90;;;;;;5033952;28;20396;-75
2023/09/25 02:48:21;;;;;;;7.47;3.22;;;15.50;99.90;;;;;;5033893;28;20037;-73
2023/09/25 02:50:48;;;;;;;5.82;2.90;;;15.40;99.90;;;;;;5033879;28;20580;-73
2023/09/25 02:53:15;;;;;;;5.78;2.72;;;15.50;99.90;;;;;;5033390;28;20036;-74
2023/09/25 02:55:41;;;;;;;5.20;3.13;;;15.50;99.90;;;;;;5032496;28;20044;-72
2023/09/25 02:58:07;;;;;;;4.43;2.70;;;15.50;99.90;;;;;;5032820;28;20034;-73
2023/09/25 03:00:33;;;;;;;5.05;2.80;;;15.60;99.90;;;;;;5032868;28;20033;-74
2023/09/25 03:02:59;;;;;;;3.78;2.63;;;15.60;99.90;;;;;;5032476;28;20072;-72
2023/09/25 03:05:25;;;;;;;3.33;2.03;;;15.70;99.90;;;;;;5032186;28;20064;-72
2023/09/25 03:07:51;;;;;;;2.97;2.13;;;15.70;99.90;;;;;;5033557;28;20021;-74
2023/09/25 03:10:17;;;;;;;4.07;2.67;;;15.80;99.90;;;;;;5058616;28;20030;-74
2023/09/25 03:12:43;;;;;;;5.95;2.88;;;15.80;99.90;;;;;;5030449;28;20030;-73
2023/09/25 03:15:09;;;;;;;4.43;2.53;;;15.80;99.90;;;;;;5058199;28;20030;-75
2023/09/25 03:17:35;;;;;;;3.72;2.30;;;15.80;99.90;;;;;;5020703;28;20108;-73
2023/09/25 03:20:08;;;;;;;2.75;2.15;;;15.80;99.90;;;;;;5033122;28;20080;-73
2023/09/25 03:22:35;;;;;;;5.90;2.20;;;15.80;99.90;;;;;;5033594;28;20025;-74
2023/09/25 03:25:01;;;;;;;6.13;2.72;;;15.70;99.90;;;;;;5031806;28;20488;-74
2023/09/25 03:27:27;;;;;;;5.00;2.25;;;15.70;99.90;;;;;;5033422;28;20025;-72
2023/09/25 03:29:54;;;;;;;4.10;2.22;;;15.80;99.90;;;;;;5033171;28;20020;-76
2023/09/25 03:32:20;;;;;;;2.67;2.22;;;15.80;99.90;;;;;;5055397;28;20034;-76
2023/09/25 03:34:46;;;;;;;3.58;2.08;;;15.80;99.90;;;;;;5028967;28;20477;-76
2023/09/25 03:37:12;;;;;;;4.45;2.22;;;15.90;99.90;;;;;;5031463;28;20052;-76
2023/09/25 03:39:38;;;;;;;4.72;2.80;;;15.90;99.90;;;;;;5031483;28;20060;-73
2023/09/25 03:42:04;;;;;;;3.85;2.15;;;15.90;99.90;;;;;;5033476;28;20108;-73
2023/09/25 03:44:30;;;;;;;5.18;2.33;;;15.90;99.90;;;;;;5032937;28;20455;-75
2023/09/25 03:46:56;;;;;;;4.82;2.67;;;16.00;99.90;;;;;;5033075;28;20045;-74
2023/09/25 03:49:22;;;;;;;4.72;2.78;;;16.00;99.90;;;;;;5051616;28;20064;-75
2023/09/25 03:51:48;;;;;;;4.93;2.70;;;15.90;99.90;;;;;;5039808;28;20155;-73
2023/09/25 03:54:13;;;;;;;4.50;2.67;;;16.00;99.90;;;;;;5031718;28;20480;-73
2023/09/25 03:56:39;;;;;;;5.40;2.45;;;16.00;99.90;;;;;;5031651;28;20030;-73
2023/09/25 03:59:06;;;;;;;6.47;2.65;;;16.00;99.90;;;;;;5032495;28;20025;-72
2023/09/25 04:01:31;;;;;;;2.47;1.95;;;16.10;99.90;;;;;;5032784;28;20030;-73
2023/09/25 04:03:57;;;;;;;5.35;2.15;;;16.10;99.90;;;;;;5032768;28;20036;-73
2023/09/25 04:06:23;;;;;;;5.63;2.60;;;16.20;99.90;;;;;;5032837;28;20455;-73
2023/09/25 04:08:50;;;;;;;3.03;2.22;;;16.20;99.90;;;;;;5032701;28;20452;-72
2023/09/25 04:11:16;;;;;;;3.95;2.33;;;16.20;99.90;;;;;;5033466;28;20484;-74
2023/09/25 04:13:41;;;;;;;3.15;2.25;;;16.20;99.90;;;;;;5048383;28;20027;-74
2023/09/25 04:16:12;;;;;;;5.38;3.13;;;16.10;99.90;;;;;;5051103;28;20531;-75
2023/09/25 04:18:39;;;;;;;5.55;2.55;;;16.20;99.90;;;;;;5048675;28;20500;-74
2023/09/25 04:21:07;;;;;;;5.63;2.63;;;16.20;99.90;;;;;;5056273;28;20017;-75
2023/09/25 04:23:33;;;;;;;3.20;2.03;;;16.20;99.90;;;;;;5056066;28;20099;-74
2023/09/25 04:26:00;;;;;;;3.28;1.92;;;16.20;99.90;;;;;;5056298;28;20496;-74
2023/09/25 04:28:30;;;;;;;4.20;2.42;;;16.10;99.90;;;;;;5049734;28;20058;-75
2023/09/25 04:31:04;;;;;;;4.07;2.25;;;16.10;99.90;;;;;;5053935;28;20025;-73
2023/09/25 04:33:32;;;;;;;4.40;2.53;;;16.10;99.90;;;;;;5056090;28;20029;-74
2023/09/25 04:35:59;;;;;;;7.18;2.88;;;16.00;99.90;;;;;;5056194;28;20432;-73
2023/09/25 04:38:28;;;;;;;4.57;2.70;;;16.10;99.90;;;;;;5056294;28;20376;-74
2023/09/25 04:40:57;;;;;;;4.40;2.38;;;16.10;99.90;;;;;;5055804;28;20472;-75
2023/09/25 04:43:23;;;;;;;3.20;2.25;;;16.10;99.90;;;;;;5055973;28;20064;-73
2023/09/25 04:45:52;;;;;;;3.10;2.08;;;16.20;99.90;;;;;;5056109;28;20070;-73
2023/09/25 04:48:19;;;;;;;6.43;2.75;;;16.10;99.90;;;;;;5055849;28;20061;-72
2023/09/25 04:50:45;;;;;;;6.45;3.05;;;16.20;99.90;;;;;;5034974;28;20100;-74
2023/09/25 04:53:10;;;;;;;6.40;3.20;;;16.20;99.90;;;;;;5036131;28;20060;-73
2023/09/25 04:55:39;;;;;;;4.97;2.90;;;16.10;99.90;;;;;;5035690;28;20715;-73
2023/09/25 04:58:05;;;;;;;4.25;2.67;;;16.10;99.90;;;;;;5039655;28;20022;-74
2023/09/25 05:00:32;;;;;;;5.97;2.80;;;16.00;99.90;;;;;;5038584;28;20071;-73
2023/09/25 05:02:59;;;;;;;3.72;2.40;;;16.10;99.90;;;;;;5034758;28;20029;-74
2023/09/25 05:05:26;;;;;;;3.13;2.30;;;16.10;99.90;;;;;;5040697;28;20117;-73
2023/09/25 05:07:53;;;;;;;5.38;2.45;;;16.10;99.90;;;;;;5039159;28;20500;-74
2023/09/25 05:10:22;;;;;;;3.05;2.13;;;16.20;99.90;;;;;;5036931;28;20025;-74
2023/09/25 05:12:48;;;;;;;3.67;2.30;;;16.10;99.90;;;;;;5032661;28;20052;-73
2023/09/25 05:15:15;;;;;;;11.32;3.38;;;16.00;99.90;;;;;;5038562;28;20033;-74
2023/09/25 05:17:42;;;;;;;5.68;2.63;;;16.10;99.90;;;;;;5035696;28;20030;-74
2023/09/25 05:20:15;;;;;;;5.70;2.85;;;16.10;99.90;;;;;;5037704;28;20037;-73
2023/09/25 05:22:53;;;;;;;5.35;2.40;;;16.20;99.90;;;;;;5028672;28;20017;-74
2023/09/25 05:25:20;;;;;;;5.90;2.30;;;16.20;99.90;;;;;;5034654;28;20057;-74
2023/09/25 05:27:48;;;;;;;4.18;2.03;;;16.10;99.90;;;;;;5035782;28;20029;-73
2023/09/25 05:30:17;;;;;;;8.25;3.47;;;16.10;99.90;;;;;;5033549;28;20029;-75
2023/09/25 05:32:50;;;;;;;6.70;3.42;;;16.00;99.90;;;;;;5033500;28;20358;-74
2023/09/25 05:35:17;;;;;;;5.43;3.35;;;16.10;99.90;;;;;;5037356;28;20025;-74
2023/09/25 05:37:45;;;;;;;6.35;3.03;;;16.20;99.90;;;;;;5034329;28;20029;-73
2023/09/25 05:40:12;;;;;;;7.30;3.58;;;16.20;99.90;;;;;;5034878;28;20037;-74
2023/09/25 05:42:39;;;;;;;10.90;3.75;;;16.20;99.90;;;;;;5035871;28;20491;-74
2023/09/25 05:45:06;;;;;;;4.88;2.83;;;16.30;99.90;;;;;;5054990;28;20035;-73
2023/09/25 05:47:32;;;;;;;5.88;2.53;;;16.30;99.90;;;;;;5054840;28;20021;-74
2023/09/25 05:49:58;;;;;;;6.90;2.63;;;16.20;99.90;;;;;;5054716;28;20029;-73
2023/09/25 05:52:24;;;;;;;3.47;2.45;;;16.20;99.90;;;;;;5054395;28;20032;-73
2023/09/25 05:54:51;;;;;;;5.70;3.13;;;16.30;99.90;;;;;;5054535;28;20078;-74
2023/09/25 05:57:17;;;;;;;7.28;3.05;;;16.20;99.90;;;;;;5054157;28;20439;-74
2023/09/25 05:59:43;;;;;;;8.40;3.42;;;16.20;99.90;;;;;;5047503;28;20056;-73
2023/09/25 06:02:09;;;;;;;4.57;2.53;;;16.20;99.90;;;;;;5035061;28;20504;-73
2023/09/25 06:04:36;;;;;;;7.00;4.25;;;16.20;99.90;;;;;;5034582;28;20021;-73
2023/09/25 06:07:06;;;;;;;7.18;4.22;;;16.20;99.90;;;;;;5034554;28;20025;-73
2023/09/25 06:09:32;;;;;;;8.63;4.68;;;16.20;99.90;;;;;;5034503;28;20377;-73
2023/09/25 06:11:59;;;;;;;8.02;4.82;;;16.30;99.90;;;;;;5046515;28;20021;-74
2023/09/25 06:14:25;;;;;;;10.30;5.65;;;16.30;99.90;;;;;;5054266;28;20033;-73
2023/09/25 06:16:54;;;;;;;10.52;5.32;;;16.30;99.90;;;;;;5054350;28;20016;-74
2023/09/25 06:19:21;;;;;;;6.60;3.83;;;16.30;99.90;;;;;;5053940;28;20040;-73
2023/09/25 06:21:49;;;;;;;7.65;3.70;;;16.40;99.90;;;;;;5054280;28;20047;-73
2023/09/25 06:24:15;;;;;;;5.50;2.92;;;16.40;99.90;;;;;;5040681;28;20167;-73
2023/09/25 06:26:46;;;;;;;7.18;3.17;;;16.40;99.90;;;;;;5054058;28;20112;-73
2023/09/25 06:29:13;;;;;;;4.72;2.97;;;16.30;99.90;;;;;;5054091;28;20138;-72
2023/09/25 06:31:40;;;;;;;4.20;3.03;;;16.40;99.90;;;;;;5053757;28;20021;-73
2023/09/25 06:34:09;;;;;;;7.18;3.80;;;16.50;99.90;;;;;;5053920;28;20495;-73
2023/09/25 06:36:36;;;;;;;7.38;3.92;;;16.50;99.90;;;;;;5053273;28;20017;-73
2023/09/25 06:39:06;;;;;;;7.47;4.50;;;16.60;99.90;;;;;;5053924;28;20029;-72
2023/09/25 06:41:32;;;;;;;5.50;3.13;;;16.60;99.90;;;;;;5053412;28;20083;-73
2023/09/25 06:43:59;;;;;;;7.05;3.20;;;16.70;99.90;;;;;;5053532;28;20045;-73
2023/09/25 06:46:25;;;;;;;5.15;3.10;;;16.60;99.90;;;;;;5054123;28;20090;-73
2023/09/25 06:48:51;;;;;;;5.38;3.47;;;16.70;99.90;;;;;;5053581;28;20021;-74
2023/09/25 06:51:17;;;;;;;4.88;3.20;;;16.60;99.90;;;;;;5053655;28;20037;-74
2023/09/25 06:53:43;;;;;;;6.88;3.75;;;16.70;99.90;;;;;;5053401;28;20446;-73
2023/09/25 06:56:12;;;;;;;9.90;5.07;;;16.70;99.90;;;;;;5052792;28;20086;-73
2023/09/25 06:58:39;;;;;;;8.80;3.83;;;16.70;99.90;;;;;;5053258;28;20120;-73
2023/09/25 07:01:05;;;;;;;7.95;4.05;;;16.60;99.90;;;;;;5053203;28;20060;-74
2023/09/25 07:03:31;;;;;;;9.55;4.03;;;16.70;99.90;;;;;;5053614;28;20166;-74
2023/09/25 07:05:57;;;;;;;9.57;5.10;;;16.70;99.90;;;;;;5053225;28;20524;-73
2023/09/25 07:08:25;;;;;;;6.50;4.03;;;16.70;99.90;;;;;;5053206;28;20460;-72
2023/09/25 07:10:51;;;;;;;8.10;4.03;;;16.70;99.90;;;;;;5053453;28;20496;-73
2023/09/25 07:13:19;;;;;;;9.93;3.75;;;16.80;99.90;;;;;;5053044;28;20487;-73
2023/09/25 07:15:47;;;;;;;7.03;3.28;;;16.80;99.90;;;;;;5053450;28;20021;-74
2023/09/25 07:18:17;;;;;;;9.57;4.63;;;16.80;99.90;;;;;;5052605;28;20017;-73
2023/09/25 07:20:46;;;;;;;5.72;2.97;;;16.90;99.90;;;;;;5051619;28;20064;-74
2023/09/25 07:23:12;;;;;;;5.50;3.10;;;16.90;99.90;;;;;;5052955;28;20544;-74
2023/09/25 07:25:38;;;;;;;4.22;2.65;;;16.90;99.90;;;;;;5053089;28;20113;-73
2023/09/25 07:28:04;;;;;;;8.27;3.53;;;17.00;99.90;;;;;;5052517;28;20276;-73
2023/09/25 07:30:31;;;;;;;7.78;3.80;;;17.00;99.90;;;;;;5053075;28;20036;-73
2023/09/25 07:32:56;;;;;;;4.95;3.03;;;17.10;99.90;;;;;;5053071;28;20013;-73
2023/09/25 07:35:22;;;;;;;4.70;2.72;;;17.10;99.90;;;;;;5053178;28;20495;-73
2023/09/25 07:37:48;;;;;;;5.93;3.00;;;17.20;99.90;;;;;;5053001;28;20103;-73
2023/09/25 07:40:18;;;;;;;6.03;2.67;;;17.20;99.90;;;;;;5052896;28;20036;-73
2023/09/25 07:42:44;;;;;;;4.97;2.40;;;17.30;99.90;;;;;;5052707;28;20033;-73
2023/09/25 07:45:12;;;;;;;3.17;2.10;;;17.40;99.90;;;;;;5052658;28;20040;-73
2023/09/25 07:47:41;;;;;;;4.68;2.30;;;17.30;99.90;;;;;;5052302;28;20104;-74
2023/09/25 07:50:10;;;;;;;4.82;2.63;;;17.40;99.90;;;;;;5052532;28;20028;-73
2023/09/25 07:52:38;;;;;;;4.32;2.40;;;17.50;99.90;;;;;;5052719;28;20033;-73
2023/09/25 07:55:14;;;;;;;4.00;2.25;;;17.50;99.90;;;;;;5052710;28;20476;-73
2023/09/25 07:57:42;;;;;;;4.40;2.40;;;17.50;99.90;;;;;;5052834;28;20030;-74
2023/09/25 08:00:44;;;;;;;4.78;2.55;;;17.60;99.90;;;;;;5051876;28;20514;-73
2023/09/25 08:03:02;;;;;;;3.25;2.00;;;17.60;99.90;;;;;;5053616;28;20045;-73
2023/09/25 08:05:28;;;;;;;4.38;2.65;;;17.60;99.90;;;;;;5051421;28;20078;-74
2023/09/25 08:07:54;;;;;;;7.38;3.00;;;17.70;99.90;;;;;;5052538;28;20021;-73
2023/09/25 08:10:20;;;;;;;3.13;2.10;;;17.70;99.90;;;;;;5052789;28;20028;-74
2023/09/25 08:12:46;;;;;;;2.90;2.10;;;17.70;99.90;;;;;;5051794;28;20525;-74
2023/09/25 08:15:13;;;;;;;3.95;2.42;;;17.70;99.90;;;;;;5052660;28;20025;-73
2023/09/25 08:17:48;;;;;;;6.68;3.00;;;17.70;99.90;;;;;;5052400;28;20098;-73
2023/09/25 08:20:17;;;;;;;3.60;2.53;;;17.70;99.90;;;;;;5052658;28;20102;-73
2023/09/25 08:22:44;;;;;;;5.15;2.60;;;17.70;99.90;;;;;;5039271;28;20022;-73
2023/09/25 08:25:10;;;;;;;13.80;6.10;;;17.90;99.90;;;;;;5052498;28;20029;-73
2023/09/25 08:27:37;;;;;;;24.23;12.02;;;17.90;99.90;;;;;;5051920;28;20033;-73
2023/09/25 08:30:07;;;;;;;13.80;7.60;;;17.90;99.90;;;;;;5052082;28;20021;-73
2023/09/25 08:32:33;;;;;;;10.40;5.22;;;17.90;99.90;;;;;;5052020;28;20032;-73
2023/09/25 08:34:59;;;;;;;7.07;4.25;;;18.00;99.90;;;;;;5052611;28;20024;-73
2023/09/25 08:37:25;;;;;;;8.85;3.50;;;18.10;99.90;;;;;;5052020;28;20534;-73
2023/09/25 08:39:52;;;;;;;5.32;3.30;;;18.20;99.90;;;;;;5052335;28;20124;-74
2023/09/25 08:42:22;;;;;;;5.57;3.10;;;18.20;99.90;;;;;;5052122;28;20032;-73
2023/09/25 08:44:52;;;;;;;6.35;3.22;;;18.40;99.90;;;;;;5052157;28;20447;-74
2023/09/25 08:47:20;;;;;;;12.55;4.25;;;18.40;99.90;;;;;;5051831;28;20112;-74
2023/09/25 08:49:52;;;;;;;9.07;5.05;;;18.40;99.90;;;;;;5052112;28;20520;-74
2023/09/25 08:52:20;;;;;;;;;;;18.30;99.90;;;;;;5052295;28;20033;-74
2023/09/25 08:54:48;;;;;;;5.93;3.85;;;18.20;99.90;;;;;;5052256;28;19908;-74
2023/09/25 08:57:15;;;;;;;5.85;3.60;;;18.20;99.90;;;;;;5051848;28;20029;-74
2023/09/25 08:59:44;;;;;;;7.18;4.10;;;18.30;99.90;;;;;;5054646;28;20029;-74
2023/09/25 09:02:12;;;;;;;5.68;3.65;;;18.30;99.90;;;;;;5055717;28;20376;-74
2023/09/25 09:04:38;;;;;;;6.32;3.42;;;18.30;99.90;;;;;;5055370;28;20017;-74
2023/09/25 09:07:11;;;;;;;5.72;3.33;;;18.40;99.90;;;;;;5055958;28;20530;-73
2023/09/25 09:09:38;;;;;;;6.78;3.70;;;18.50;99.90;;;;;;5053551;28;20476;-73
2023/09/25 09:12:05;;;;;;;9.25;4.22;;;18.60;99.90;;;;;;5055509;28;20525;-74
2023/09/25 09:14:39;;;;;;;7.10;4.30;;;18.50;99.90;;;;;;5055413;28;20064;-74
2023/09/25 09:17:05;;;;;;;5.43;3.55;;;18.60;99.90;;;;;;5055633;28;20032;-73
2023/09/25 09:19:44;;;;;;;6.30;3.75;;;18.60;99.90;;;;;;5055074;28;20070;-74
2023/09/25 09:22:10;;;;;;;7.18;3.92;;;18.60;99.90;;;;;;5055185;28;20503;-74
2023/09/25 09:24:40;;;;;;;8.60;4.53;;;18.50;99.90;;;;;;5055115;28;20013;-74
2023/09/25 09:27:09;;;;;;;5.38;3.30;;;18.60;99.90;;;;;;5054824;28;20036;-73
2023/09/25 09:29:40;;;;;;;6.53;3.95;;;18.60;99.90;;;;;;5054978;28;20522;-74
2023/09/25 09:32:06;;;;;;;5.57;3.72;;;18.70;99.90;;;;;;5055408;28;20044;-74
2023/09/25 09:34:33;;;;;;;9.77;4.80;;;18.70;99.90;;;;;;5054787;28;20021;-74
2023/09/25 09:37:00;;;;;;;7.32;4.43;;;18.60;99.90;;;;;;5055428;28;20040;-74
2023/09/25 09:39:27;;;;;;;5.95;4.10;;;18.70;99.90;;;;;;5054809;28;20082;-74
2023/09/25 09:41:55;;;;;;;9.00;6.03;;;18.50;99.90;;;;;;5054940;28;20491;-74
2023/09/25 09:44:22;;;;;;;9.63;5.00;;;18.60;99.90;;;;;;5054717;28;20080;-74
2023/09/25 09:46:51;;;;;;;7.03;4.55;;;18.50;99.90;;;;;;5054688;28;20432;-74
2023/09/25 09:49:21;;;;;;;8.73;4.45;;;18.50;99.90;;;;;;5029522;28;20104;-74
2023/09/25 09:51:52;;;;;;;6.18;4.03;;;18.50;99.90;;;;;;5054693;28;20060;-74
2023/09/25 09:54:21;;;;;;;9.70;4.50;;;18.50;99.90;;;;;;5054649;28;20106;-74
2023/09/25 09:56:47;;;;;;;6.75;4.57;;;18.60;99.90;;;;;;5052339;28;20126;-74
2023/09/25 09:59:15;;;;;;;6.82;4.55;;;18.60;99.90;;;;;;5040560;28;20029;-73
2023/09/25 10:01:45;;;;;;;8.10;4.45;;;18.60;99.90;;;;;;5034870;28;20029;-74
2023/09/25 10:04:13;;;;;;;7.60;4.40;;;18.60;99.90;;;;;;5034746;28;20426;-75
2023/09/25 10:06:51;;;;;;;8.75;4.63;;;18.60;99.90;;;;;;5034625;28;20144;-74
2023/09/25 10:09:18;;;;;;;9.73;4.97;;;18.60;99.90;;;;;;5034239;28;20053;-74
2023/09/25 10:11:47;;;;;;;7.82;5.38;;;18.60;99.90;;;;;;5044416;28;20017;-74
2023/09/25 10:14:13;;;;;;;7.75;4.75;;;18.70;99.90;;;;;;5054217;28;20025;-73
2023/09/25 10:17:01;;;;;;;8.52;5.00;;;18.70;99.90;;;;;;5053931;28;20023;-74
2023/09/25 10:19:36;;;;;;;10.07;4.65;;;18.90;99.90;;;;;;5053651;28;20033;-74
2023/09/25 10:22:20;;;;;;;8.00;5.15;;;18.90;99.90;;;;;;5053526;28;20115;-74
2023/09/25 10:25:04;;;;;;;9.52;5.03;;;18.90;99.90;;;;;;5054142;28;20394;-74
2023/09/25 10:27:31;;;;;;;6.88;4.60;;;19.00;99.90;;;;;;5054088;28;20036;-73
2023/09/25 10:30:14;;;;;;;9.55;5.78;;;19.00;99.90;;;;;;5054145;28;20017;-73
2023/09/25 10:32:48;;;;;;;9.10;5.38;;;19.00;99.90;;;;;;5030541;28;20380;-73
2023/09/25 10:35:40;;;;;;;11.65;5.80;;;19.10;99.90;;;;;;5054026;28;20025;-74
2023/09/25 10:38:13;;;;;;;10.07;5.20;;;19.10;99.90;;;;;;5052554;28;20032;-73
2023/09/25 10:40:42;;;;;;;8.77;5.15;;;19.20;99.90;;;;;;5028053;28;20037;-73
2023/09/25 10:43:09;;;;;;;10.00;5.47;;;19.30;99.90;;;;;;5053531;28;20045;-73
2023/09/25 10:45:37;;;;;;;10.65;5.30;;;19.40;99.90;;;;;;5053736;28;20052;-73
2023/09/25 10:48:04;;;;;;;12.18;5.95;;;19.50;99.90;;;;;;5053662;28;20025;-74
2023/09/25 10:50:30;;;;;;;9.00;5.45;;;19.70;99.90;;;;;;5053984;28;20294;-73
2023/09/25 10:52:57;;;;;;;8.75;5.45;;;19.80;99.90;;;;;;5053151;28;20079;-74
2023/09/25 10:55:23;;;;;;;8.10;5.45;;;20.00;99.90;;;;;;5053775;28;20029;-73
2023/09/25 10:57:50;;;;;;;11.15;6.50;;;20.10;99.90;;;;;;5053180;28;20391;-74
2023/09/25 11:00:18;;;;;;;12.02;6.32;;;20.20;99.90;;;;;;5054054;28;20037;-73
2023/09/25 11:02:44;;;;;;;11.90;7.32;;;20.50;99.90;;;;;;5052845;28;20040;-74
2023/09/25 11:05:11;;;;;;;12.23;7.32;;;20.80;99.90;;;;;;5053482;28;20035;-73
2023/09/25 11:07:37;;;;;;;12.30;6.78;;;20.80;99.90;;;;;;5050250;28;20025;-73
2023/09/25 11:10:04;;;;;;;14.70;9.38;;;21.20;99.90;;;;;;5051824;28;20063;-74
2023/09/25 11:12:30;;;;;;;22.02;14.65;;;22.70;99.90;;;;;;5053046;28;20056;-74
2023/09/25 11:14:57;;;;;;;44.45;27.45;;;21.20;99.90;;;;;;5052899;28;20083;-73
2023/09/25 11:17:24;;;;;;;54.15;34.33;;;21.10;99.90;;;;;;5053426;28;20365;-73
2023/09/25 11:19:51;;;;;;;39.78;28.92;;;21.20;99.90;;;;;;5052917;28;20029;-73
2023/09/25 11:22:21;;;;;;;35.78;29.80;;;21.40;99.90;;;;;;5052892;28;20109;-73
2023/09/25 11:24:54;;;;;;;31.90;25.25;;;21.60;99.90;;;;;;5052778;28;20082;-73
2023/09/25 11:27:20;;;;;;;25.92;16.00;;;;;;;;;;5052699;28;20049;-73
2023/09/25 11:29:49;;;;;;;19.40;13.95;;;21.70;99.90;;;;;;5053226;28;20013;-73
2023/09/25 11:32:18;;;;;;;20.10;13.15;;;22.00;99.90;;;;;;5052395;28;20439;-73
2023/09/25 11:34:45;;;;;;;23.50;12.98;;;22.10;99.90;;;;;;5053338;28;20434;-72
2023/09/25 11:37:20;;;;;;;23.10;11.50;;;22.20;99.90;;;;;;5052965;28;20025;-73
2023/09/25 11:39:46;;;;;;;18.95;12.45;;;22.30;99.90;;;;;;5043654;28;20037;-73
2023/09/25 11:42:12;;;;;;;16.75;10.80;;;22.50;99.90;;;;;;5048548;28;20104;-73
2023/09/25 11:44:38;;;;;;;17.65;12.90;;;22.40;99.90;;;;;;5052580;28;20037;-74
2023/09/25 11:47:06;;;;;;;18.15;12.18;;;22.70;99.90;;;;;;5052571;28;20374;-73
2023/09/25 11:49:32;;;;;;;18.40;11.82;;;22.70;99.90;;;;;;5052533;28;20021;-74
2023/09/25 11:51:58;;;;;;;19.00;12.85;;;22.50;99.90;;;;;;5052464;28;20472;-73
2023/09/25 11:54:24;;;;;;;18.70;13.00;;;22.40;99.90;;;;;;5052604;28;20036;-73
2023/09/25 11:56:50;;;;;;;19.90;12.02;;;22.40;99.90;;;;;;5052792;28;20037;-72
2023/09/25 11:59:16;;;;;;;18.25;12.63;;;22.50;99.90;;;;;;5052665;28;20357;-73
2023/09/25 12:01:42;;;;;;;19.25;13.40;;;22.50;99.90;;;;;;5052087;28;20036;-72
2023/09/25 12:04:12;;;;;;;19.35;12.18;;;22.50;99.90;;;;;;5052801;28;20067;-73
2023/09/25 12:06:39;;;;;;;19.20;13.80;;;22.50;99.90;;;;;;5052659;28;20550;-73
2023/09/25 12:09:11;;;;;;;19.50;13.02;;;22.50;99.90;;;;;;5052640;28;20100;-72
2023/09/25 12:11:41;;;;;;;18.75;13.65;;;22.40;99.90;;;;;;5052167;28;20036;-72
2023/09/25 12:14:08;;;;;;;17.52;11.85;;;22.40;99.90;;;;;;5052542;28;20120;-72
2023/09/25 12:16:34;;;;;;;20.83;14.27;;;22.50;99.90;;;;;;5052466;28;20017;-72
2023/09/25 12:19:00;;;;;;;20.05;13.90;;;22.40;99.90;;;;;;5052656;28;20025;-73
2023/09/25 12:21:26;;;;;;;19.42;14.38;;;22.40;99.90;;;;;;5052543;28;20059;-72
2023/09/25 12:23:52;;;;;;;19.70;13.95;;;22.30;99.90;;;;;;5052222;28;20032;-74
2023/09/25 12:26:18;;;;;;;20.60;14.57;;;22.00;99.90;;;;;;5052105;28;20049;-73
2023/09/25 12:28:44;;;;;;;19.15;12.38;;;21.90;99.90;;;;;;5052538;28;20025;-73
2023/09/25 12:31:10;;;;;;;18.98;13.82;;;21.90;99.90;;;;;;5052220;28;20025;-72
2023/09/25 12:33:36;;;;;;;17.25;12.52;;;22.00;99.90;;;;;;5053926;28;20108;-72
2023/09/25 12:36:03;;;;;;;16.83;11.80;;;22.10;99.90;;;;;;5055646;28;20013;-72
2023/09/25 12:38:29;;;;;;;17.83;10.82;;;22.00;99.90;;;;;;5056473;28;20158;-73
2023/09/25 12:40:55;;;;;;;19.90;11.45;;;22.00;99.90;;;;;;5042458;28;20029;-72
2023/09/25 12:43:21;;;;;;;20.73;13.25;;;22.00;99.90;;;;;;5055962;28;20095;-73
2023/09/25 12:45:47;;;;;;;16.90;12.07;;;22.10;99.90;;;;;;5055664;28;20025;-73